バンダルスリブガワン の空港の天気 - METARとTAF

ブルネイ国際空港 ( WBSB / BWN ) - ブルネイ バンダルスリブガワン
飛行場実況気象(Metar)
観測時間08/14 12:30 BNT (08/14 04:30 UTC)
風向・風速北西 4m/s
視程10km以上
天気現象
少しの雲 雲底高度 490m
少しの雲 雲底高度 520m
全天の8割程度の雲 雲底高度 9140m
気温32℃
湿度56%
気圧1010hPa
METARWBSB 140430Z 32008KT 9999 FEW016 FEW017CB BKN300 32/22 Q1010 NOSIG
過去の天気等 Google飛行場航空写真 Wunderground天気予報

過去48時間のMETAR

飛行場予報(TAF)
発表時間: 8/14 07:00 BNT (8/13 23:00 UTC)
予報対象時間: 14日8時 BNT ~ 15日14時 BNT
風向・風速南南西 2m/s
視程10km以上
少しの雲 雲底高度 460m
少しの積乱雲 雲底高度 490m
14日11時 BNT ~ 14日13時 BNT に徐々に
風向・風速北西 5m/s
全天の4割程度の雲 雲底高度 490m
少しの積乱雲 雲底高度 520m
14日14時 BNT ~ 14日16時 BNT に 確率 40% で一時的に
視程8000m
天気現象弱いしゅう雨
TAF WBSB 132300Z 1400/1506 21004KT 9999 FEW015 FEW016CB
BECMG 1403/1405 31009KT SCT016 FEW017CB
PROB40 TEMPO 1406/1408 8000 -SHRA